createdAt,value
2023-06-22T00:01:22.438Z,30.01
2023-06-22T00:03:51.516Z,30.06
2023-06-22T00:06:18.641Z,30.03
2023-06-22T00:08:45.797Z,30.05
2023-06-22T00:11:13.141Z,29.91
2023-06-22T00:13:40.810Z,29.96
2023-06-22T00:16:08.024Z,29.89
2023-06-22T00:18:35.146Z,29.91
2023-06-22T00:21:03.865Z,29.93
2023-06-22T00:23:30.881Z,29.88
2023-06-22T00:25:57.937Z,29.89
2023-06-22T00:28:25.026Z,29.92
2023-06-22T00:30:52.235Z,29.85
2023-06-22T00:33:19.512Z,29.83
2023-06-22T00:35:46.715Z,29.86
2023-06-22T00:38:15.277Z,29.87
2023-06-22T00:40:42.341Z,29.90
2023-06-22T00:43:09.461Z,29.88
2023-06-22T00:45:36.598Z,29.82
2023-06-22T00:48:05.276Z,29.77
2023-06-22T00:50:35.130Z,29.77
2023-06-22T00:53:06.461Z,29.80
2023-06-22T00:55:36.700Z,29.88
2023-06-22T00:58:04.246Z,29.77
2023-06-22T01:00:31.892Z,29.81
2023-06-22T01:02:59.612Z,29.70
2023-06-22T01:05:26.775Z,29.68
2023-06-22T01:08:13.551Z,29.66
2023-06-22T01:10:55.316Z,29.60
2023-06-22T01:13:30.459Z,29.59
2023-06-22T01:16:04.375Z,29.52
2023-06-22T01:18:33.294Z,29.52
2023-06-22T01:21:02.935Z,29.52
2023-06-22T01:23:45.514Z,29.58
2023-06-22T01:26:22.075Z,29.53
2023-06-22T01:28:53.675Z,29.51
2023-06-22T01:31:25.358Z,29.48
2023-06-22T01:33:58.234Z,29.43
2023-06-22T01:36:27.355Z,29.38
2023-06-22T01:38:55.801Z,29.30
2023-06-22T01:41:26.176Z,29.18
2023-06-22T01:43:56.780Z,29.19
2023-06-22T01:46:24.555Z,29.13
2023-06-22T01:48:52.339Z,29.12
2023-06-22T01:51:19.714Z,29.06
2023-06-22T01:53:46.718Z,29.00
2023-06-22T01:56:14.633Z,28.97
2023-06-22T01:58:51.232Z,28.89
2023-06-22T02:01:28.994Z,28.93
2023-06-22T02:04:07.895Z,29.04
2023-06-22T02:06:40.420Z,29.03
2023-06-22T02:09:13.647Z,28.99
2023-06-22T02:11:45.715Z,28.93
2023-06-22T02:14:14.176Z,28.79
2023-06-22T02:16:43.938Z,28.74
2023-06-22T02:19:11.421Z,28.73
2023-06-22T02:21:38.540Z,28.87
2023-06-22T02:24:06.100Z,28.76
2023-06-22T02:26:34.033Z,28.79
2023-06-22T02:29:01.178Z,28.93
2023-06-22T02:31:28.276Z,28.77
2023-06-22T02:33:57.036Z,28.70
2023-06-22T02:36:24.407Z,28.67
2023-06-22T02:38:51.758Z,28.69
2023-06-22T02:41:18.895Z,28.66
2023-06-22T02:43:46.521Z,28.63
2023-06-22T02:46:14.666Z,28.71
2023-06-22T02:48:42.202Z,28.62
2023-06-22T02:51:11.037Z,28.56
2023-06-22T02:53:38.182Z,28.57
2023-06-22T02:56:05.939Z,28.66
2023-06-22T02:58:33.176Z,28.63
2023-06-22T03:04:02.417Z,28.53
2023-06-22T03:06:31.057Z,28.46
2023-06-22T03:09:01.600Z,28.59
2023-06-22T03:11:28.837Z,28.53
2023-06-22T03:13:55.987Z,28.48
2023-06-22T03:16:23.218Z,28.44
2023-06-22T03:18:50.394Z,28.42
2023-06-22T03:21:17.440Z,28.50
2023-06-22T03:23:45.961Z,28.48
2023-06-22T03:26:13.054Z,28.47
2023-06-22T03:28:40.158Z,28.39
2023-06-22T03:31:07.265Z,28.34
2023-06-22T03:33:34.458Z,28.33
2023-06-22T03:36:01.628Z,28.25
2023-06-22T03:38:29.010Z,28.29
2023-06-22T03:40:57.562Z,28.29
2023-06-22T03:43:24.857Z,28.27
2023-06-22T03:45:52.021Z,28.29
2023-06-22T03:48:19.219Z,28.25
2023-06-22T03:50:46.322Z,28.26
2023-06-22T03:53:13.441Z,28.23
2023-06-22T03:55:48.958Z,28.21
2023-06-22T03:58:17.698Z,28.22
2023-06-22T04:00:44.818Z,28.26
2023-06-22T04:03:11.958Z,28.23
2023-06-22T04:05:40.007Z,28.32
2023-06-22T04:08:07.115Z,28.35
2023-06-22T04:10:34.695Z,28.32
2023-06-22T04:13:02.219Z,28.36
2023-06-22T04:15:30.720Z,28.47
2023-06-22T04:17:58.222Z,28.42
2023-06-22T04:20:26.351Z,28.55
2023-06-22T04:22:55.279Z,28.50
2023-06-22T04:25:23.399Z,28.47
2023-06-22T04:27:50.682Z,28.41
2023-06-22T04:30:18.156Z,28.38
2023-06-22T04:32:46.922Z,28.37
2023-06-22T04:35:14.155Z,28.30
2023-06-22T04:37:41.317Z,28.32
2023-06-22T04:40:09.419Z,28.27
2023-06-22T04:42:39.049Z,28.39
2023-06-22T04:45:07.182Z,28.44
2023-06-22T04:47:34.405Z,28.44
2023-06-22T04:50:03.116Z,28.65
2023-06-22T04:52:30.172Z,28.65
2023-06-22T04:54:57.257Z,28.81
2023-06-22T04:57:24.375Z,28.80
2023-06-22T04:59:51.414Z,28.84
2023-06-22T05:02:18.498Z,28.82
2023-06-22T05:04:46.042Z,28.90
2023-06-22T05:07:14.725Z,28.95
2023-06-22T05:09:41.848Z,28.88
2023-06-22T05:12:11.056Z,28.77
2023-06-22T05:14:38.719Z,28.87
2023-06-22T05:17:05.775Z,28.75
2023-06-22T05:19:32.984Z,28.68
2023-06-22T05:22:00.099Z,28.64
2023-06-22T05:24:28.798Z,28.57
2023-06-22T05:26:55.824Z,28.54
2023-06-22T05:29:22.986Z,28.60
2023-06-22T05:31:50.062Z,28.61
2023-06-22T05:34:17.186Z,28.16
2023-06-22T05:36:44.361Z,28.27
2023-06-22T05:39:15.272Z,28.36
2023-06-22T05:41:44.069Z,28.36
2023-06-22T05:44:11.173Z,28.45
2023-06-22T05:46:38.664Z,28.49
2023-06-22T05:49:05.780Z,28.49
2023-06-22T05:51:32.850Z,28.52
2023-06-22T05:53:59.955Z,28.53
2023-06-22T05:56:27.158Z,28.54
2023-06-22T05:58:55.702Z,28.80
2023-06-22T06:01:22.753Z,29.08
2023-06-22T06:03:51.033Z,29.23
2023-06-22T06:06:18.544Z,29.41
2023-06-22T06:08:45.646Z,29.18
2023-06-22T06:11:13.031Z,28.99
2023-06-22T06:13:40.099Z,28.92
2023-06-22T06:16:08.607Z,28.80
2023-06-22T06:18:35.764Z,28.74
2023-06-22T06:21:02.953Z,28.72
2023-06-22T06:23:30.156Z,28.66
2023-06-22T06:25:57.281Z,28.64
2023-06-22T06:28:26.040Z,28.60
2023-06-22T06:30:53.336Z,28.57
2023-06-22T06:33:22.741Z,28.52
2023-06-22T06:35:51.577Z,28.52
2023-06-22T06:38:18.719Z,28.57
2023-06-22T06:40:45.878Z,28.55
2023-06-22T06:43:13.122Z,28.50
2023-06-22T06:45:40.331Z,28.57
2023-06-22T06:48:07.548Z,28.74
2023-06-22T06:50:36.051Z,28.66
2023-06-22T06:53:03.231Z,28.92
2023-06-22T06:55:30.321Z,29.10
2023-06-22T06:57:57.341Z,29.14
2023-06-22T07:00:24.362Z,29.21
2023-06-22T07:02:51.527Z,29.26
2023-06-22T07:05:18.924Z,29.24
2023-06-22T07:07:47.518Z,29.27
2023-06-22T07:10:14.651Z,29.34
2023-06-22T07:12:41.740Z,29.71
2023-06-22T07:15:11.210Z,29.92
2023-06-22T07:17:39.714Z,29.93
2023-06-22T07:20:07.949Z,29.95
2023-06-22T07:22:35.117Z,29.94
2023-06-22T07:25:04.083Z,30.02
2023-06-22T07:27:31.095Z,29.75
2023-06-22T07:29:58.303Z,29.43
2023-06-22T07:32:25.364Z,29.44
2023-06-22T07:34:52.577Z,29.51
2023-06-22T07:37:19.756Z,29.56
2023-06-22T07:39:47.383Z,29.58
2023-06-22T07:42:16.050Z,29.56
2023-06-22T07:44:43.137Z,29.58
2023-06-22T07:47:10.236Z,29.59
2023-06-22T07:49:37.360Z,29.52
2023-06-22T07:52:07.038Z,29.44
2023-06-22T07:54:34.543Z,29.45
2023-06-22T07:57:01.943Z,29.50
2023-06-22T07:59:30.680Z,29.79
2023-06-22T08:01:57.864Z,30.19
2023-06-22T08:04:25.025Z,30.26
2023-06-22T08:06:52.229Z,30.37
2023-06-22T08:09:19.494Z,30.43
2023-06-22T08:11:46.828Z,30.77
2023-06-22T08:14:13.918Z,30.83
2023-06-22T08:16:42.741Z,30.90
2023-06-22T08:19:09.858Z,30.96
2023-06-22T08:21:37.183Z,30.99
2023-06-22T08:24:04.842Z,31.03
2023-06-22T08:26:31.799Z,30.98
2023-06-22T08:28:58.815Z,31.09
2023-06-22T08:31:25.950Z,31.15
2023-06-22T08:33:54.508Z,31.29
2023-06-22T08:36:21.595Z,31.23
2023-06-22T08:38:48.915Z,31.21
2023-06-22T08:41:16.039Z,30.44
2023-06-22T08:43:43.214Z,30.79
2023-06-22T08:46:10.321Z,30.93
2023-06-22T08:48:37.551Z,31.01
2023-06-22T08:51:06.200Z,30.94
2023-06-22T08:53:33.259Z,30.91
2023-06-22T08:56:00.409Z,30.93
2023-06-22T08:58:27.675Z,30.88
2023-06-22T09:00:54.839Z,30.92
2023-06-22T09:03:22.176Z,30.96
2023-06-22T09:05:49.590Z,30.91
2023-06-22T09:08:18.177Z,30.89
2023-06-22T09:10:45.460Z,30.85
2023-06-22T09:13:12.643Z,30.74
2023-06-22T09:15:39.795Z,30.75
2023-06-22T09:18:07.236Z,30.72
2023-06-22T09:20:34.456Z,30.67
2023-06-22T09:23:01.801Z,30.53
2023-06-22T09:25:30.666Z,30.62
2023-06-22T09:27:58.150Z,30.71
2023-06-22T09:30:25.416Z,30.67
2023-06-22T09:32:52.683Z,30.68
2023-06-22T09:35:19.811Z,30.65
2023-06-22T09:37:46.880Z,30.72
2023-06-22T09:40:14.330Z,30.77
2023-06-22T09:42:43.130Z,30.77
2023-06-22T09:45:11.031Z,30.72
2023-06-22T09:47:38.108Z,30.80
2023-06-22T09:50:06.300Z,30.72
2023-06-22T09:52:47.293Z,30.79
2023-06-22T09:55:15.876Z,30.77
2023-06-22T09:57:44.462Z,30.77
2023-06-22T10:00:13.013Z,30.75
2023-06-22T10:02:40.640Z,30.68
2023-06-22T10:05:08.234Z,30.57
2023-06-22T10:07:36.040Z,30.31
2023-06-22T10:10:03.475Z,30.37
2023-06-22T10:12:30.759Z,30.34
2023-06-22T10:14:59.218Z,30.29
2023-06-22T10:17:26.716Z,30.10
2023-06-22T10:19:53.818Z,30.11
2023-06-22T10:22:20.874Z,30.07
2023-06-22T10:24:48.602Z,29.97
2023-06-22T10:27:16.093Z,30.06
2023-06-22T10:29:43.168Z,30.03
2023-06-22T10:32:11.777Z,29.89
2023-06-22T10:34:38.836Z,29.79
2023-06-22T10:37:06.817Z,29.91
2023-06-22T10:39:33.939Z,29.74
2023-06-22T10:42:01.062Z,29.86
2023-06-22T10:44:28.097Z,29.91
2023-06-22T10:46:55.846Z,29.96
2023-06-22T10:49:25.831Z,30.06
2023-06-22T10:51:52.916Z,30.08
2023-06-22T10:54:19.977Z,30.12
2023-06-22T10:56:46.975Z,30.15
2023-06-22T10:59:14.055Z,30.12
2023-06-22T11:01:41.398Z,29.98
2023-06-22T11:04:08.700Z,30.02
2023-06-22T11:06:37.418Z,29.97
2023-06-22T11:09:12.275Z,29.94
2023-06-22T11:11:53.018Z,29.98
2023-06-22T11:14:20.539Z,29.96
2023-06-22T11:16:50.657Z,29.90
2023-06-22T11:19:17.939Z,29.92
2023-06-22T11:21:46.534Z,29.99
2023-06-22T11:24:13.731Z,30.00
2023-06-22T11:26:41.375Z,29.98
2023-06-22T11:29:10.673Z,29.94
2023-06-22T11:31:39.585Z,29.91
2023-06-22T11:34:06.816Z,29.94
2023-06-22T11:36:33.969Z,29.88
2023-06-22T11:41:35.075Z,29.82
2023-06-22T11:44:02.140Z,29.87
2023-06-22T11:46:29.313Z,29.87
2023-06-22T11:48:56.677Z,29.93
2023-06-22T11:51:23.878Z,29.80
2023-06-22T11:53:51.034Z,29.81
2023-06-22T11:56:19.659Z,29.77
2023-06-22T11:58:46.764Z,29.59
2023-06-22T12:01:13.974Z,29.60
2023-06-22T12:03:41.284Z,29.60
2023-06-22T12:06:08.728Z,29.66
2023-06-22T12:08:36.240Z,29.56
2023-06-22T12:11:03.517Z,29.52
2023-06-22T12:13:32.059Z,29.54
2023-06-22T12:15:59.299Z,29.51
2023-06-22T12:18:26.497Z,29.49
2023-06-22T12:20:53.619Z,29.53
2023-06-22T12:23:20.675Z,29.39
2023-06-22T12:25:47.939Z,29.52
2023-06-22T12:28:15.455Z,29.53
2023-06-22T12:30:43.925Z,29.61
2023-06-22T12:33:11.217Z,29.58
2023-06-22T12:35:38.299Z,29.62
2023-06-22T12:38:05.441Z,29.72
2023-06-22T12:40:32.739Z,30.20
2023-06-22T12:43:00.120Z,30.54
2023-06-22T12:45:27.419Z,30.74
2023-06-22T12:47:55.992Z,30.94
2023-06-22T12:50:23.197Z,31.00
2023-06-22T12:52:50.524Z,30.95
2023-06-22T12:55:17.753Z,30.92
2023-06-22T12:57:44.970Z,30.95
2023-06-22T13:00:13.380Z,31.08
2023-06-22T13:02:40.662Z,31.09
2023-06-22T13:05:10.040Z,31.11
2023-06-22T13:07:37.380Z,31.17
2023-06-22T13:10:05.678Z,30.99
2023-06-22T13:12:32.851Z,31.24
2023-06-22T13:14:59.981Z,31.28
2023-06-22T13:17:27.297Z,31.37
2023-06-22T13:19:54.459Z,31.32
2023-06-22T13:22:33.853Z,31.19
2023-06-22T13:25:01.631Z,31.36
2023-06-22T13:27:28.750Z,31.42
2023-06-22T13:29:55.971Z,31.39
2023-06-22T13:32:23.290Z,31.49
2023-06-22T13:34:50.397Z,31.58
2023-06-22T13:37:17.478Z,31.61
2023-06-22T13:39:46.178Z,31.75
2023-06-22T13:42:13.460Z,31.81
2023-06-22T13:44:40.688Z,31.84
2023-06-22T13:47:08.299Z,31.89
2023-06-22T13:49:35.414Z,31.75
2023-06-22T13:52:02.702Z,31.90
2023-06-22T13:54:30.958Z,32.05
2023-06-22T13:57:00.950Z,32.05
2023-06-22T13:59:28.075Z,32.09
2023-06-22T14:01:55.430Z,32.17
2023-06-22T14:04:24.566Z,32.26
2023-06-22T14:06:52.568Z,32.10
2023-06-22T14:09:21.360Z,32.04
2023-06-22T14:11:48.575Z,32.00
2023-06-22T14:14:17.284Z,31.42
2023-06-22T14:16:44.450Z,31.80
2023-06-22T14:19:11.639Z,31.50
2023-06-22T14:21:38.918Z,31.79
2023-06-22T14:24:06.178Z,31.90
2023-06-22T14:26:33.178Z,31.33
2023-06-22T14:29:00.521Z,31.51
2023-06-22T14:31:29.301Z,31.59
2023-06-22T14:33:56.619Z,31.71
2023-06-22T14:36:24.460Z,31.69
2023-06-22T14:38:51.860Z,31.60
2023-06-22T14:41:19.295Z,31.68
2023-06-22T14:43:46.742Z,31.48
2023-06-22T14:46:14.448Z,31.57
2023-06-22T14:48:44.702Z,31.43
2023-06-22T14:51:16.289Z,31.69
2023-06-22T14:53:47.354Z,31.72
2023-06-22T14:56:15.228Z,31.89
2023-06-22T14:58:42.702Z,31.81
2023-06-22T15:01:09.846Z,31.76
2023-06-22T15:03:37.207Z,31.65
2023-06-22T15:06:06.879Z,31.57
2023-06-22T15:08:34.220Z,31.54
2023-06-22T15:11:03.186Z,31.41
2023-06-22T15:13:32.781Z,31.16
2023-06-22T15:15:59.892Z,30.94
2023-06-22T15:18:27.370Z,30.90
2023-06-22T15:20:54.664Z,29.99
2023-06-22T15:23:23.299Z,29.00
2023-06-22T15:25:50.487Z,27.95
2023-06-22T15:28:17.722Z,27.49
2023-06-22T15:30:46.421Z,28.05
2023-06-22T15:33:15.021Z,27.96
2023-06-22T15:35:42.342Z,27.71
2023-06-22T15:38:10.881Z,27.79
2023-06-22T15:40:39.737Z,27.96
2023-06-22T15:43:06.911Z,27.81
2023-06-22T15:45:34.515Z,27.68
2023-06-22T15:48:01.837Z,27.75
2023-06-22T15:50:29.771Z,27.87
2023-06-22T15:52:57.195Z,27.92
2023-06-22T15:55:26.124Z,27.90
2023-06-22T15:57:54.778Z,27.88
2023-06-22T16:00:24.384Z,27.91
2023-06-22T16:02:51.754Z,27.69
2023-06-22T16:05:51.195Z,27.88
2023-06-22T16:08:20.151Z,27.86
2023-06-22T16:10:48.793Z,27.90
2023-06-22T16:13:17.350Z,27.88
2023-06-22T16:15:44.653Z,27.84
2023-06-22T16:18:11.901Z,27.78
2023-06-22T16:20:40.973Z,27.85
2023-06-22T16:23:08.154Z,27.80
2023-06-22T16:25:35.474Z,27.76
2023-06-22T16:28:02.954Z,27.75
2023-06-22T16:30:31.695Z,27.77
2023-06-22T16:32:59.181Z,27.77
2023-06-22T16:35:26.454Z,27.73
2023-06-22T16:37:54.617Z,27.75
2023-06-22T16:40:21.962Z,27.77
2023-06-22T16:42:52.589Z,27.79
2023-06-22T16:45:20.869Z,27.77
2023-06-22T16:47:51.258Z,27.78
2023-06-22T16:50:19.710Z,27.75
2023-06-22T16:52:46.940Z,27.75
2023-06-22T16:55:14.785Z,27.65
2023-06-22T16:57:42.479Z,27.69
2023-06-22T17:00:11.117Z,27.65
2023-06-22T17:02:47.223Z,27.65
2023-06-22T17:05:16.708Z,27.53
2023-06-22T17:07:49.120Z,27.46
2023-06-22T17:10:16.821Z,27.40
2023-06-22T17:12:44.939Z,27.53
2023-06-22T17:15:13.391Z,27.50
2023-06-22T17:17:41.164Z,27.53
2023-06-22T17:20:09.922Z,27.50
2023-06-22T17:22:38.479Z,27.53
2023-06-22T17:25:09.803Z,27.55
2023-06-22T17:27:37.777Z,27.62
2023-06-22T17:30:07.202Z,27.58
2023-06-22T17:32:34.443Z,27.54
2023-06-22T17:35:03.364Z,27.63
2023-06-22T17:37:47.323Z,27.48
2023-06-22T17:40:18.691Z,27.57
2023-06-22T17:42:46.674Z,27.58
2023-06-22T17:45:18.226Z,27.59
2023-06-22T17:47:49.257Z,27.65
2023-06-22T17:50:17.543Z,27.65
2023-06-22T17:52:51.155Z,27.66
2023-06-22T17:55:21.356Z,27.65
2023-06-22T17:57:53.378Z,27.61
2023-06-22T18:00:21.530Z,27.59
2023-06-22T18:02:51.170Z,27.45
2023-06-22T18:05:29.220Z,27.46
2023-06-22T18:07:58.686Z,27.57
2023-06-22T18:10:28.378Z,27.56
2023-06-22T18:12:56.512Z,27.53
2023-06-22T18:15:24.240Z,27.46
2023-06-22T18:17:53.050Z,27.33
2023-06-22T18:20:21.136Z,27.29
2023-06-22T18:22:49.017Z,27.28
2023-06-22T18:25:16.745Z,27.22
2023-06-22T18:27:47.902Z,27.15
2023-06-22T18:30:17.503Z,27.03
2023-06-22T18:32:44.799Z,26.94
2023-06-22T18:35:13.026Z,26.98
2023-06-22T18:37:43.599Z,27.01
2023-06-22T18:40:14.255Z,26.86
2023-06-22T18:42:47.114Z,26.83
2023-06-22T18:45:24.470Z,26.84
2023-06-22T18:48:06.645Z,26.85
2023-06-22T18:50:43.919Z,26.78
2023-06-22T18:53:18.658Z,26.79
2023-06-22T18:55:51.612Z,26.70
2023-06-22T18:58:25.593Z,26.39
2023-06-22T19:00:53.398Z,26.31
2023-06-22T19:03:30.536Z,26.21
2023-06-22T19:05:58.099Z,26.07
2023-06-22T19:08:25.239Z,26.05
2023-06-22T19:10:52.517Z,26.08
2023-06-22T19:13:29.876Z,25.98
2023-06-22T19:16:00.622Z,25.88
2023-06-22T19:18:34.218Z,25.81
2023-06-22T19:21:03.466Z,25.85
2023-06-22T19:23:32.527Z,26.12
2023-06-22T19:26:01.415Z,25.97
2023-06-22T19:28:32.348Z,25.93
2023-06-22T19:31:01.675Z,25.92
2023-06-22T19:33:29.916Z,25.96
2023-06-22T19:36:00.461Z,26.02
2023-06-22T19:38:28.565Z,25.93
2023-06-22T19:40:55.818Z,25.88
2023-06-22T19:43:23.497Z,25.83
2023-06-22T19:45:52.439Z,25.82
2023-06-22T19:48:19.658Z,25.69
2023-06-22T19:50:46.647Z,25.82
2023-06-22T19:53:15.240Z,25.73
2023-06-22T19:55:44.266Z,25.72
2023-06-22T19:58:12.470Z,25.69
2023-06-22T20:00:41.604Z,25.76
2023-06-22T20:03:11.884Z,25.88
2023-06-22T20:05:43.188Z,25.86
2023-06-22T20:08:13.440Z,25.85
2023-06-22T20:10:41.962Z,25.83
2023-06-22T20:13:13.704Z,25.88
2023-06-22T20:15:42.010Z,25.88
2023-06-22T20:18:11.815Z,25.84
2023-06-22T20:20:44.520Z,25.81
2023-06-22T20:23:12.579Z,25.86
2023-06-22T20:25:41.892Z,25.93
2023-06-22T20:28:14.268Z,25.93
2023-06-22T20:30:43.173Z,25.90
2023-06-22T20:33:18.996Z,25.89
2023-06-22T20:35:46.243Z,25.85
2023-06-22T20:38:13.379Z,25.86
2023-06-22T20:40:40.564Z,25.90
2023-06-22T20:43:07.917Z,25.86
2023-06-22T20:45:37.483Z,25.80
2023-06-22T20:48:07.041Z,25.78
2023-06-22T20:50:36.833Z,25.85
2023-06-22T20:53:06.662Z,25.73
2023-06-22T20:55:35.444Z,25.74
2023-06-22T20:58:02.878Z,25.73
2023-06-22T21:00:30.311Z,25.75
2023-06-22T21:02:59.911Z,25.69
2023-06-22T21:05:27.878Z,25.70
2023-06-22T21:07:56.938Z,25.67
2023-06-22T21:10:24.441Z,25.70
2023-06-22T21:12:52.456Z,25.78
2023-06-22T21:15:19.800Z,25.65
2023-06-22T21:17:48.332Z,25.71
2023-06-22T21:20:16.259Z,25.61
2023-06-22T21:22:43.295Z,25.58
2023-06-22T21:25:13.455Z,25.52
2023-06-22T21:27:42.898Z,25.60
2023-06-22T21:30:12.449Z,25.60
2023-06-22T21:32:41.671Z,25.55
2023-06-22T21:35:10.647Z,25.63
2023-06-22T21:37:38.219Z,25.51
2023-06-22T21:40:07.150Z,25.43
2023-06-22T21:42:35.762Z,25.46
2023-06-22T21:45:02.977Z,25.49
2023-06-22T21:47:30.132Z,25.47
2023-06-22T21:49:57.321Z,25.48
2023-06-22T21:52:24.424Z,25.41
2023-06-22T21:54:51.584Z,25.40
2023-06-22T21:57:18.881Z,25.34
2023-06-22T21:59:47.363Z,25.43
2023-06-22T22:02:14.667Z,25.34
2023-06-22T22:04:41.750Z,25.34
2023-06-22T22:07:08.862Z,25.38
2023-06-22T22:09:35.902Z,25.38
2023-06-22T22:12:03.025Z,25.36
2023-06-22T22:14:30.170Z,25.43
2023-06-22T22:16:58.913Z,25.35
2023-06-22T22:19:26.386Z,25.36
2023-06-22T22:21:53.418Z,25.29
2023-06-22T22:24:20.562Z,25.35
2023-06-22T22:26:47.721Z,25.39
2023-06-22T22:29:14.827Z,25.43
2023-06-22T22:31:42.057Z,25.35
2023-06-22T22:34:10.803Z,25.26
2023-06-22T22:36:38.014Z,25.25
2023-06-22T22:39:05.095Z,25.21
2023-06-22T22:41:32.155Z,25.16
2023-06-22T22:43:59.804Z,25.18
2023-06-22T22:46:27.105Z,25.15
2023-06-22T22:48:54.395Z,25.26
2023-06-22T22:51:22.896Z,25.30
2023-06-22T22:53:50.034Z,25.28
2023-06-22T22:56:17.111Z,25.39
2023-06-22T22:58:44.232Z,25.32
2023-06-22T23:01:11.412Z,25.30
2023-06-22T23:03:38.724Z,25.24
2023-06-22T23:06:05.994Z,25.28
2023-06-22T23:08:34.510Z,25.23
2023-06-22T23:11:01.610Z,25.18
2023-06-22T23:13:28.766Z,25.13
2023-06-22T23:15:55.931Z,25.10
2023-06-22T23:18:23.035Z,25.24
2023-06-22T23:20:50.157Z,25.17
2023-06-22T23:23:17.336Z,25.19
2023-06-22T23:25:45.883Z,25.16
2023-06-22T23:28:15.414Z,25.22
2023-06-22T23:30:44.864Z,25.24
2023-06-22T23:33:12.031Z,25.15
2023-06-22T23:35:39.117Z,25.13
2023-06-22T23:38:06.251Z,25.08
2023-06-22T23:40:33.348Z,25.07
2023-06-22T23:43:01.827Z,25.08
2023-06-22T23:45:28.972Z,25.07
2023-06-22T23:47:56.209Z,25.02
2023-06-22T23:50:23.347Z,25.04
2023-06-22T23:52:50.696Z,25.06
2023-06-22T23:55:19.446Z,25.21
2023-06-22T23:57:46.879Z,25.19
